Pagrindinis puslapis
METAR-TAF:

METAR-TAF

Oro uostai :

Stambulas Atatiurkas, Turkija

platuma: 40-58N, ilguma: 028-49E, Aukštis: 48 m

Dabartinis oras

Ataskaita buvo paskelbta 40 minutes, ne 00:20 UTC
Vėjas 9 kt iš Šiaurės Rytų
Temperatūra 8°C
Drėgmė 57%
Slėgis 1021 hPa
Matomumas 10 km arba daugiau
nėra debesų žemiau 1500 m ir nėra kamuolinių lietaus debesų

METAR: LTBA 250020Z 05009KT CAVOK 08/00 Q1021 NOSIG RMK RWY17L 05008KT 020V080 RWY05 07010KT RWY23 07008KT

Laikas: 04:00 (01:00 UTC)

Prognozė

Ataskaita buvo paskelbta 2 valandos ir 20 minutes, ne 22:40 UTC
Prognozė galioja nuo 25 metu 00 UTC su 26 metu 06 UTC
Vėjas 12 kt iš Rytų/Šiaurės Rytų
Matomumas 10 km arba daugiau
nėra debesų žemiau 1500 m ir nėra kamuolinių lietaus debesų
Tapsmas
nuo 25 metu 00 UTC su 25 metu 03 UTC
Vėjas 2 kt nuo kintamojo kryptimis
Tapsmas
nuo 25 metu 17 UTC su 25 metu 20 UTC
Vėjas 12 kt iš Pietų/Pietvakarių

TAF: LTBA 242240Z 2500/2606 06012KT CAVOK BECMG 2500/2503 VRB02KT BECMG 2517/2520 20012KT

Orai ataskaitas ir orų prognozės (METAR, TAF).

turimą stotys yra geltonos ir raudonos taškus žemėlapyje.

Perkelti pele per norėdami pamatyti stoties vardą.

Tada spustelėkite, norėdami matyti oro stebėjimo ir prognozės.

Norėdami pakeisti žemėlapį: spustelėkite ant žalios mygtukų su juodo kryžiaus žemyn,; žalią mygtuką su brūkšneliu, jei norite nutolinti; arba žalių rodyklių gretimoms žemėlapius.


METAR-TAF: